Time;durP1;ratioP1;P1;durP2;ratioP2;P2;SDS_P1;SDS_P2;PMS_P1;PMS_P2;Temp;Humidity;BMP_temperature;BMP_pressure;BME280_temperature;BME280_humidity;BME280_pressure;Samples;Min_cycle;Max_cycle;Signal;HPM_P1;HPM_P2
2022/01/30 00:00:45;;;;;;;1.30;1.20;;;6.10;99.90;;;;;;6113888;29;20086;-81
2022/01/30 00:03:45;;;;;;;2.25;1.20;;;6.00;99.90;;;;;;6114099;29;20031;-80
2022/01/30 00:06:46;;;;;;;1.10;1.00;;;6.00;99.90;;;;;;6114337;29;20118;-80
2022/01/30 00:09:48;;;;;;;1.02;1.02;;;6.00;99.90;;;;;;6113417;29;20509;-83
2022/01/30 00:12:53;;;;;;;1.05;1.02;;;6.20;99.90;;;;;;6114262;28;20094;-81
2022/01/30 00:15:55;;;;;;;1.42;1.35;;;6.00;99.90;;;;;;6114306;29;20087;-80
2022/01/30 00:19:06;;;;;;;1.23;1.23;;;5.90;99.90;;;;;;6129659;28;20041;-81
2022/01/30 00:22:17;;;;;;;1.38;1.25;;;6.00;99.90;;;;;;6114394;29;20039;-80
2022/01/30 00:25:28;;;;;;;1.45;1.35;;;7.30;99.90;;;;;;6130898;28;20385;-81
2022/01/30 00:28:31;;;;;;;2.00;1.45;;;6.00;99.90;;;;;;6114847;29;20460;-80
2022/01/30 00:31:33;;;;;;;1.83;1.20;;;5.90;99.90;;;;;;6113427;29;20043;-81
2022/01/30 00:34:34;;;;;;;1.40;1.40;;;5.90;99.90;;;;;;6127979;29;20036;-80
2022/01/30 00:37:39;;;;;;;3.22;1.85;;;5.90;99.90;;;;;;6113161;29;20089;-81
2022/01/30 00:40:40;;;;;;;1.27;1.20;;;5.90;99.90;;;;;;6130037;29;20030;-82
2022/01/30 00:43:41;;;;;;;1.50;1.40;;;6.60;99.90;;;;;;6113238;29;20032;-80
2022/01/30 00:46:41;;;;;;;2.05;1.55;;;5.80;99.90;;;;;;6113588;29;20039;-81
2022/01/30 00:49:42;;;;;;;1.33;1.25;;;6.30;99.90;;;;;;6129358;29;20039;-82
2022/01/30 00:52:43;;;;;;;1.80;1.67;;;5.90;99.90;;;;;;6129227;28;20036;-83
2022/01/30 00:55:44;;;;;;;1.15;1.08;;;6.40;99.90;;;;;;6113214;29;20126;-81
2022/01/30 00:58:44;;;;;;;1.35;1.27;;;7.40;99.90;;;;;;6112861;28;20561;-81
2022/01/30 01:01:45;;;;;;;1.30;1.20;;;5.90;99.90;;;;;;6129181;29;20764;-80
2022/01/30 01:04:45;;;;;;;1.27;1.17;;;5.90;99.90;;;;;;6128665;29;20031;-80
2022/01/30 01:07:48;;;;;;;1.33;1.20;;;6.60;99.90;;;;;;6113169;29;20027;-81
2022/01/30 01:10:55;;;;;;;;;;;5.90;99.90;;;;;;6113479;28;20146;-82
2022/01/30 01:20:47;;;;;;;1.58;1.20;;;6.40;99.90;;;;;;6114012;29;20018;-81
2022/01/30 01:23:59;;;;;;;0.98;0.98;;;5.80;99.90;;;;;;6131122;29;20035;-80
2022/01/30 01:27:00;;;;;;;1.02;1.02;;;5.80;99.90;;;;;;6113383;29;20028;-80
2022/01/30 01:30:00;;;;;;;1.08;1.08;;;5.80;99.90;;;;;;6128809;29;20058;-81
2022/01/30 01:33:03;;;;;;;0.70;0.70;;;5.80;99.90;;;;;;6115115;29;20031;-80
2022/01/30 01:36:04;;;;;;;1.10;1.10;;;5.80;99.90;;;;;;6133220;29;20043;-81
2022/01/30 01:39:04;;;;;;;1.55;1.30;;;5.80;99.90;;;;;;6117087;29;20035;-81
2022/01/30 01:42:05;;;;;;;2.75;2.00;;;6.10;99.90;;;;;;6132933;28;20038;-81
2022/01/30 01:45:07;;;;;;;0.90;0.88;;;5.80;99.90;;;;;;6117182;29;20520;-81
2022/01/30 01:48:11;;;;;;;0.90;0.90;;;5.80;99.90;;;;;;6117079;29;20078;-80
2022/01/30 01:51:19;;;;;;;0.80;0.80;;;5.90;99.90;;;;;;6117793;28;20496;-83
2022/01/30 01:54:19;;;;;;;0.80;0.80;;;6.20;99.90;;;;;;6117730;29;20038;-81
2022/01/30 01:57:20;;;;;;;0.80;0.80;;;5.80;99.90;;;;;;6116994;29;20035;-80
2022/01/30 02:00:21;;;;;;;0.90;0.90;;;5.80;99.90;;;;;;6116551;29;20035;-81
2022/01/30 02:03:22;;;;;;;1.10;1.00;;;5.80;99.90;;;;;;6132728;29;20391;-81
2022/01/30 02:06:26;;;;;;;0.82;0.82;;;5.80;99.90;;;;;;6116968;29;20038;-81
2022/01/30 02:09:30;;;;;;;0.80;0.80;;;6.40;99.90;;;;;;6132396;28;20075;-81
2022/01/30 02:12:44;;;;;;;0.68;0.68;;;6.00;99.90;;;;;;6133232;29;20138;-81
2022/01/30 02:23:56;;;;;;;0.70;0.70;;;5.80;99.90;;;;;;6134132;29;20039;-81
2022/01/30 02:25:55;;;;;;;0.73;0.73;;;5.80;99.90;;;;;;6134856;29;20035;-82
2022/01/30 02:28:56;;;;;;;1.17;1.08;;;5.70;99.90;;;;;;6133820;29;20027;-81
2022/01/30 02:31:58;;;;;;;0.95;0.95;;;5.70;99.90;;;;;;6115831;28;20038;-81
2022/01/30 02:34:59;;;;;;;1.00;1.00;;;5.90;99.90;;;;;;6131078;28;20462;-81
2022/01/30 02:38:01;;;;;;;0.85;0.85;;;5.80;99.90;;;;;;6115933;29;20034;-82
2022/01/30 02:41:01;;;;;;;0.50;0.50;;;6.10;99.90;;;;;;6116151;28;20020;-82
2022/01/30 02:47:24;;;;;;;0.65;0.60;;;5.70;99.90;;;;;;6132863;29;20032;-83
2022/01/30 02:53:42;;;;;;;0.55;0.55;;;5.90;99.90;;;;;;6133557;29;21071;-81
2022/01/30 02:56:42;;;;;;;1.00;0.65;;;5.90;99.90;;;;;;6132295;29;20074;-82
2022/01/30 02:59:43;;;;;;;0.50;0.50;;;5.90;99.90;;;;;;6115339;29;20027;-82
2022/01/30 03:02:43;;;;;;;0.50;0.50;;;7.00;99.90;;;;;;6131818;29;20030;-83
2022/01/30 03:05:44;;;;;;;0.95;0.85;;;6.10;99.90;;;;;;6115363;29;20023;-82
2022/01/30 03:08:45;;;;;;;0.52;0.52;;;5.90;99.90;;;;;;6115311;29;20098;-81
2022/01/30 03:11:45;;;;;;;0.50;0.50;;;5.80;99.90;;;;;;6114934;28;20055;-82
2022/01/30 03:14:46;;;;;;;0.50;0.50;;;6.10;99.90;;;;;;6131318;29;20405;-81
2022/01/30 03:17:46;;;;;;;0.75;0.75;;;6.00;99.90;;;;;;6131538;29;20035;-81
2022/01/30 03:20:48;;;;;;;2.47;0.88;;;5.80;99.90;;;;;;6114820;29;20082;-80
2022/01/30 03:23:48;;;;;;;1.15;0.77;;;6.10;99.90;;;;;;6115341;29;20553;-81
2022/01/30 03:26:50;;;;;;;0.50;0.50;;;6.30;99.90;;;;;;6146709;28;20028;-81
2022/01/30 03:30:03;;;;;;;0.75;0.75;;;5.90;99.90;;;;;;6130823;29;20031;-80
2022/01/30 03:33:03;;;;;;;0.63;0.63;;;6.20;99.90;;;;;;6132248;29;20047;-81
2022/01/30 03:36:04;;;;;;;0.63;0.63;;;5.90;99.90;;;;;;6114268;29;20049;-80
2022/01/30 03:39:05;;;;;;;0.68;0.68;;;5.90;99.90;;;;;;6114084;29;20038;-82
2022/01/30 03:42:06;;;;;;;0.50;0.50;;;6.70;99.90;;;;;;6114666;29;20036;-82
2022/01/30 03:45:07;;;;;;;0.70;0.70;;;6.00;99.90;;;;;;6114333;28;20066;-81
2022/01/30 03:48:08;;;;;;;0.70;0.70;;;6.00;99.90;;;;;;6114377;29;20062;-81
2022/01/30 03:51:08;;;;;;;2.47;0.90;;;6.40;99.90;;;;;;6130390;29;20055;-83
2022/01/30 03:54:09;;;;;;;1.77;0.90;;;6.00;99.90;;;;;;6114409;29;20455;-81
2022/01/30 03:57:10;;;;;;;1.40;1.30;;;7.40;99.90;;;;;;6130143;29;20128;-80
2022/01/30 04:00:11;;;;;;;1.55;1.02;;;7.30;99.90;;;;;;6114036;28;20123;-81
2022/01/30 04:03:11;;;;;;;1.60;1.48;;;5.70;99.90;;;;;;6129836;29;20058;-83
2022/01/30 04:06:12;;;;;;;1.10;1.00;;;6.30;99.90;;;;;;6113998;28;20031;-82
2022/01/30 04:09:13;;;;;;;1.17;1.08;;;5.50;99.90;;;;;;6129536;29;20126;-83
2022/01/30 04:12:14;;;;;;;0.70;0.70;;;5.50;99.90;;;;;;6129646;29;20079;-81
2022/01/30 04:15:15;;;;;;;0.85;0.85;;;5.50;99.90;;;;;;6130334;29;20090;-80
2022/01/30 04:18:16;;;;;;;0.50;0.50;;;5.50;99.90;;;;;;6129474;29;20429;-81
2022/01/30 04:21:16;;;;;;;0.30;0.30;;;5.60;99.90;;;;;;6129921;28;20031;-83
2022/01/30 04:24:17;;;;;;;0.55;0.55;;;5.70;99.90;;;;;;6129500;29;20154;-80
2022/01/30 04:27:20;;;;;;;0.28;0.28;;;6.10;99.90;;;;;;6113324;29;20367;-81
2022/01/30 04:30:21;;;;;;;;;;;6.00;99.90;;;;;;6130349;29;20263;-81
2022/01/30 04:33:22;;;;;;;0.40;0.40;;;5.90;99.90;;;;;;6113448;28;19958;-81
2022/01/30 04:36:28;;;;;;;0.47;0.47;;;6.00;99.90;;;;;;6113445;29;20440;-80
2022/01/30 04:59:41;;;;;;;0.70;0.70;;;6.50;99.90;;;;;;6131463;28;20028;-80
2022/01/30 05:08:41;;;;;;;0.30;0.30;;;6.10;99.90;;;;;;6132892;29;20035;-81
2022/01/30 05:11:42;;;;;;;0.50;0.50;;;6.10;99.90;;;;;;6133842;29;20094;-81
2022/01/30 05:14:44;;;;;;;1.38;0.95;;;6.10;99.90;;;;;;6133655;28;20383;-83
2022/01/30 05:17:45;;;;;;;0.50;0.50;;;6.10;99.90;;;;;;6117963;29;20085;-81
2022/01/30 05:20:46;;;;;;;0.70;0.70;;;6.00;99.90;;;;;;6117801;28;20031;-81
2022/01/30 05:23:46;;;;;;;0.57;0.57;;;6.00;99.90;;;;;;6133823;29;20027;-81
2022/01/30 05:26:47;;;;;;;2.75;0.93;;;6.00;99.90;;;;;;6133670;29;20039;-81
2022/01/30 05:29:48;;;;;;;0.77;0.75;;;6.00;99.90;;;;;;6133330;29;20039;-80
2022/01/30 05:32:49;;;;;;;0.65;0.65;;;5.90;99.90;;;;;;6133178;29;20023;-81
2022/01/30 05:35:50;;;;;;;0.50;0.50;;;6.00;99.90;;;;;;6117389;29;20070;-81
2022/01/30 05:38:51;;;;;;;0.50;0.50;;;6.00;99.90;;;;;;6117373;29;20738;-81
2022/01/30 05:41:52;;;;;;;0.82;0.77;;;6.00;99.90;;;;;;6115973;28;20039;-81
2022/01/30 05:45:07;;;;;;;2.13;0.95;;;5.90;99.90;;;;;;6133203;29;20043;-81
2022/01/30 05:48:15;;;;;;;1.00;0.80;;;5.80;99.90;;;;;;6119142;29;20094;-81
2022/01/30 05:51:15;;;;;;;0.70;0.70;;;5.80;99.90;;;;;;6133950;29;20039;-81
2022/01/30 05:54:16;;;;;;;1.30;1.10;;;5.80;99.90;;;;;;6132972;29;20012;-81
2022/01/30 05:57:16;;;;;;;1.27;1.15;;;5.80;99.90;;;;;;6133073;29;20075;-84
2022/01/30 06:00:17;;;;;;;0.65;0.65;;;5.80;99.90;;;;;;6116333;28;20054;-81
2022/01/30 06:03:18;;;;;;;1.02;0.95;;;5.70;99.90;;;;;;6116881;29;20042;-80
2022/01/30 06:06:18;;;;;;;1.13;1.13;;;5.70;99.90;;;;;;6116984;29;20029;-81
2022/01/30 06:09:19;;;;;;;1.05;1.05;;;6.50;99.90;;;;;;6132209;28;20050;-79
2022/01/30 06:12:20;;;;;;;1.70;1.60;;;6.80;99.90;;;;;;6132484;29;20031;-83
2022/01/30 06:15:20;;;;;;;0.98;0.98;;;5.30;99.90;;;;;;6132377;28;20039;-81
2022/01/30 06:18:21;;;;;;;1.02;0.93;;;6.00;99.90;;;;;;6115173;28;20500;-82
2022/01/30 06:21:21;;;;;;;1.63;1.52;;;5.70;99.90;;;;;;6116136;29;20042;-83
2022/01/30 06:24:22;;;;;;;1.75;0.90;;;5.80;99.90;;;;;;6116363;29;20086;-81
2022/01/30 06:27:22;;;;;;;1.40;1.27;;;5.70;99.90;;;;;;6132446;29;20062;-81
2022/01/30 06:30:23;;;;;;;1.60;1.50;;;5.70;99.90;;;;;;6116412;29;20469;-81
2022/01/30 06:33:24;;;;;;;1.58;1.48;;;5.60;99.90;;;;;;6116277;29;20142;-81
2022/01/30 06:36:24;;;;;;;1.33;1.23;;;7.10;99.90;;;;;;6115945;28;20043;-82
2022/01/30 06:39:25;;;;;;;1.55;1.45;;;5.60;99.90;;;;;;6132294;29;20031;-82
2022/01/30 06:42:28;;;;;;;2.15;1.50;;;5.70;99.90;;;;;;6115422;29;20039;-83
2022/01/30 06:45:29;;;;;;;2.17;1.77;;;5.60;99.90;;;;;;6132322;29;20150;-83
2022/01/30 06:48:30;;;;;;;2.15;1.42;;;5.50;99.90;;;;;;6115502;29;20134;-82
2022/01/30 06:51:30;;;;;;;3.25;1.83;;;5.50;99.90;;;;;;6115773;29;20039;-81
2022/01/30 06:54:31;;;;;;;1.70;1.60;;;5.80;99.90;;;;;;6115419;29;20066;-81
2022/01/30 06:57:31;;;;;;;2.30;2.10;;;5.50;99.90;;;;;;6115756;28;20057;-84
2022/01/30 07:00:32;;;;;;;3.20;1.88;;;5.50;99.90;;;;;;6131279;29;20031;-81
2022/01/30 07:03:33;;;;;;;1.70;1.55;;;5.90;99.90;;;;;;6115625;28;20086;-83
2022/01/30 07:06:33;;;;;;;2.95;1.52;;;5.50;99.90;;;;;;6115644;29;20035;-81
2022/01/30 07:09:34;;;;;;;2.45;2.10;;;5.10;99.90;;;;;;6130589;29;20054;-81
2022/01/30 07:12:34;;;;;;;2.05;1.90;;;5.60;99.90;;;;;;6115105;29;20040;-81
2022/01/30 07:15:35;;;;;;;2.67;1.98;;;5.30;99.90;;;;;;6131141;28;20045;-81
2022/01/30 07:18:35;;;;;;;6.95;2.10;;;5.30;99.90;;;;;;6131115;29;20035;-80
2022/01/30 07:21:36;;;;;;;6.30;2.17;;;5.70;99.90;;;;;;6130984;29;20027;-84
2022/01/30 07:24:37;;;;;;;2.20;2.00;;;5.60;99.90;;;;;;6115705;28;20027;-84
2022/01/30 07:27:37;;;;;;;2.25;2.05;;;5.60;99.90;;;;;;6115194;29;20058;-85
2022/01/30 07:30:38;;;;;;;2.40;2.20;;;5.60;99.90;;;;;;6114685;28;20498;-84
2022/01/30 07:33:40;;;;;;;2.22;2.03;;;5.60;99.90;;;;;;6114934;29;20035;-85
2022/01/30 07:36:42;;;;;;;2.60;1.98;;;5.90;99.90;;;;;;6114852;29;20085;-79
2022/01/30 07:39:42;;;;;;;2.75;2.30;;;5.60;99.90;;;;;;6114941;29;20689;-81
2022/01/30 07:42:43;;;;;;;3.92;2.70;;;6.10;99.90;;;;;;6114501;28;20434;-83
2022/01/30 07:45:44;;;;;;;4.65;2.45;;;5.60;99.90;;;;;;6131200;29;20046;-82
2022/01/30 07:48:44;;;;;;;3.40;2.20;;;5.90;99.90;;;;;;6114595;29;20061;-84
2022/01/30 07:51:45;;;;;;;2.40;2.00;;;5.60;99.90;;;;;;6112981;29;20023;-81
2022/01/30 07:54:46;;;;;;;6.38;3.13;;;5.70;99.90;;;;;;6114521;29;20066;-84
2022/01/30 07:57:46;;;;;;;3.00;2.30;;;5.70;99.90;;;;;;6114225;29;20031;-82
2022/01/30 08:00:47;;;;;;;4.43;2.47;;;5.70;99.90;;;;;;6129647;29;20106;-84
2022/01/30 08:03:48;;;;;;;9.70;4.70;;;5.70;99.90;;;;;;6129688;29;20031;-81
2022/01/30 08:06:48;;;;;;;7.78;4.20;;;5.70;99.90;;;;;;6130275;28;20031;-81
2022/01/30 08:09:49;;;;;;;9.60;6.70;;;5.90;99.90;;;;;;6129273;28;20529;-83
2022/01/30 08:12:50;;;;;;;8.98;5.72;;;6.00;99.90;;;;;;6113968;29;20071;-82
2022/01/30 08:15:50;;;;;;;9.32;4.22;;;6.10;99.90;;;;;;6129771;28;20035;-81
2022/01/30 08:18:51;;;;;;;9.40;6.60;;;6.10;99.90;;;;;;6129682;29;20100;-80
2022/01/30 08:21:52;;;;;;;12.98;7.90;;;6.10;99.90;;;;;;6113573;29;20027;-81
2022/01/30 08:24:53;;;;;;;7.97;5.95;;;6.10;99.90;;;;;;6113671;29;20035;-81
2022/01/30 08:27:53;;;;;;;4.93;3.15;;;6.40;99.90;;;;;;6113715;29;20102;-80
2022/01/30 08:30:54;;;;;;;3.83;2.53;;;6.90;99.90;;;;;;6129076;29;20042;-81
2022/01/30 08:33:55;;;;;;;3.20;2.67;;;6.40;99.90;;;;;;6114411;28;20035;-80
2022/01/30 08:36:56;;;;;;;3.80;2.47;;;6.10;99.90;;;;;;6129636;28;20122;-79
2022/01/30 08:39:56;;;;;;;3.88;3.10;;;6.10;99.90;;;;;;6130752;28;20035;-80
2022/01/30 08:42:57;;;;;;;3.85;2.83;;;6.10;99.90;;;;;;6113269;28;20035;-80
2022/01/30 08:45:59;;;;;;;4.32;3.03;;;6.10;99.90;;;;;;6130578;28;20082;-80
2022/01/30 08:49:00;;;;;;;;;;;6.20;99.90;;;;;;6130125;28;20397;-81
2022/01/30 08:52:00;;;;;;;4.30;3.40;;;6.20;99.90;;;;;;6112505;28;19964;-81
2022/01/30 08:55:05;;;;;;;3.95;2.90;;;6.20;99.90;;;;;;6113946;28;20039;-82
2022/01/30 08:58:08;;;;;;;5.45;3.13;;;6.20;99.90;;;;;;6130809;28;20474;-81
2022/01/30 09:01:12;;;;;;;3.88;3.20;;;6.40;99.90;;;;;;6114103;28;20028;-85
2022/01/30 09:04:14;;;;;;;3.92;3.25;;;6.30;99.90;;;;;;6113953;28;20058;-84
2022/01/30 09:07:14;;;;;;;4.00;3.10;;;6.40;99.90;;;;;;6130833;28;20054;-84
2022/01/30 09:10:15;;;;;;;4.13;3.00;;;6.60;99.90;;;;;;6114422;28;20055;-83
2022/01/30 09:13:16;;;;;;;4.38;2.70;;;6.40;99.90;;;;;;6129089;28;20782;-81
2022/01/30 09:16:16;;;;;;;4.40;3.42;;;6.40;99.90;;;;;;6113770;28;20461;-84
2022/01/30 09:19:17;;;;;;;4.25;3.83;;;6.50;99.90;;;;;;6113345;28;20110;-82
2022/01/30 09:22:18;;;;;;;7.28;6.43;;;6.50;99.90;;;;;;6113822;29;20379;-82
2022/01/30 09:25:18;;;;;;;6.32;5.72;;;6.50;99.90;;;;;;6112767;28;20035;-81
2022/01/30 09:28:19;;;;;;;8.70;7.13;;;6.40;99.90;;;;;;6128972;29;20035;-81
2022/01/30 09:31:20;;;;;;;5.60;3.92;;;6.40;99.90;;;;;;6129148;29;20042;-82
2022/01/30 09:34:20;;;;;;;6.70;5.07;;;6.40;99.90;;;;;;6128785;29;20031;-82
2022/01/30 09:37:21;;;;;;;3.90;3.35;;;6.40;99.90;;;;;;6112349;29;20109;-83
2022/01/30 09:40:21;;;;;;;5.90;3.60;;;6.40;99.90;;;;;;6112650;29;20054;-80
2022/01/30 09:43:22;;;;;;;5.60;4.35;;;6.50;99.90;;;;;;6114166;28;20074;-81
2022/01/30 09:46:23;;;;;;;4.65;3.13;;;6.60;99.90;;;;;;6112959;28;20038;-80
2022/01/30 09:49:25;;;;;;;10.65;4.50;;;6.90;99.90;;;;;;6129181;28;20102;-80
2022/01/30 09:52:26;;;;;;;7.28;3.30;;;6.70;99.90;;;;;;6113048;28;20168;-79
2022/01/30 09:55:26;;;;;;;4.80;2.88;;;6.80;99.90;;;;;;6117865;28;20035;-79
2022/01/30 09:58:27;;;;;;;5.53;3.05;;;6.90;99.90;;;;;;6133371;28;20697;-79
2022/01/30 10:01:33;;;;;;;6.78;4.50;;;6.90;99.90;;;;;;6133710;28;20037;-79
2022/01/30 10:04:34;;;;;;;4.20;3.30;;;6.90;99.90;;;;;;6134310;28;20696;-79
2022/01/30 10:07:53;;;;;;;6.70;3.20;;;6.90;99.90;;;;;;6133663;28;20023;-80
2022/01/30 10:11:15;;;;;;;6.22;3.60;;;7.00;99.90;;;;;;6135145;28;20079;-80
2022/01/30 10:14:16;;;;;;;5.13;3.80;;;6.90;99.90;;;;;;6119943;28;20417;-81
2022/01/30 10:17:46;;;;;;;4.82;4.00;;;6.90;99.90;;;;;;6116916;28;20123;-80
2022/01/30 10:20:47;;;;;;;5.32;4.45;;;6.90;99.90;;;;;;6132101;28;20067;-82
2022/01/30 10:23:51;;;;;;;6.95;5.35;;;6.90;99.90;;;;;;6116497;29;20035;-82
2022/01/30 10:26:53;;;;;;;8.93;6.22;;;7.00;99.90;;;;;;6128528;29;20046;-81
2022/01/30 10:30:10;;;;;;;6.45;4.78;;;7.10;99.90;;;;;;6114321;28;20032;-80
2022/01/30 10:33:14;;;;;;;6.38;4.50;;;7.20;99.90;;;;;;6131777;28;20432;-80
2022/01/30 10:36:20;;;;;;;5.75;4.22;;;7.30;99.90;;;;;;6132721;29;20508;-80
2022/01/30 10:39:23;;;;;;;4.57;4.00;;;7.40;99.90;;;;;;6132283;28;20519;-80
2022/01/30 10:42:39;;;;;;;6.55;5.03;;;7.60;99.90;;;;;;6116306;29;20367;-79
2022/01/30 10:45:39;;;;;;;8.88;4.63;;;7.60;99.90;;;;;;6115488;28;20027;-80
2022/01/30 10:48:49;;;;;;;6.80;4.20;;;7.70;99.90;;;;;;6115101;28;20038;-82
2022/01/30 10:51:55;;;;;;;6.47;4.68;;;7.70;99.90;;;;;;6114536;29;20089;-79
2022/01/30 10:55:03;;;;;;;12.45;6.93;;;7.60;99.90;;;;;;6129841;28;20043;-80
2022/01/30 10:58:05;;;;;;;24.60;14.35;;;7.80;99.90;;;;;;6131850;28;20567;-78
2022/01/30 11:01:05;;;;;;;16.20;10.07;;;7.80;99.90;;;;;;6115425;28;20062;-80
2022/01/30 11:04:06;;;;;;;7.00;5.38;;;7.80;99.90;;;;;;6099901;28;20027;-80
2022/01/30 11:07:07;;;;;;;8.55;4.63;;;7.80;99.90;;;;;;6130704;29;20061;-80
2022/01/30 11:10:22;;;;;;;8.85;4.20;;;7.90;99.90;;;;;;6115130;29;20134;-79
2022/01/30 11:13:32;;;;;;;7.32;4.15;;;8.00;99.90;;;;;;6133046;28;20031;-80
2022/01/30 11:19:53;;;;;;;11.77;4.43;;;8.10;99.90;;;;;;6134131;28;20039;-78
2022/01/30 11:22:54;;;;;;;9.88;4.47;;;8.10;99.90;;;;;;6131359;28;20485;-79
2022/01/30 11:25:54;;;;;;;8.48;4.32;;;8.20;99.90;;;;;;6131818;28;20134;-80
2022/01/30 11:28:55;;;;;;;11.80;4.63;;;8.10;99.90;;;;;;6115092;28;20032;-78
2022/01/30 11:31:56;;;;;;;11.55;5.22;;;8.10;99.90;;;;;;6114817;29;20035;-79
2022/01/30 11:34:57;;;;;;;9.88;5.18;;;8.10;99.90;;;;;;6130186;29;20465;-80
2022/01/30 11:37:57;;;;;;;8.75;4.97;;;8.10;99.90;;;;;;6098850;29;20457;-81
2022/01/30 11:41:14;;;;;;;10.98;4.15;;;8.10;99.90;;;;;;6113795;29;20035;-80
2022/01/30 11:44:18;;;;;;;7.68;4.05;;;8.20;99.90;;;;;;6130129;28;20038;-80
2022/01/30 11:47:19;;;;;;;8.93;4.15;;;8.10;99.90;;;;;;6130287;29;20027;-80
2022/01/30 11:50:21;;;;;;;8.75;4.70;;;8.20;99.90;;;;;;6114192;28;20082;-80
2022/01/30 11:53:28;;;;;;;10.85;4.63;;;8.20;99.90;;;;;;6130444;29;20028;-81
2022/01/30 11:56:32;;;;;;;9.38;4.55;;;8.20;99.90;;;;;;6129747;29;20178;-80
2022/01/30 11:59:40;;;;;;;9.10;4.35;;;8.20;99.90;;;;;;6113932;28;20039;-80
2022/01/30 12:02:40;;;;;;;7.93;3.90;;;8.20;99.90;;;;;;6130530;29;20555;-80
2022/01/30 12:05:41;;;;;;;13.18;4.85;;;8.30;99.90;;;;;;6129989;29;20043;-80
2022/01/30 12:08:44;;;;;;;11.13;4.63;;;8.30;99.90;;;;;;6129996;29;20389;-81
2022/01/30 12:11:59;;;;;;;10.98;4.40;;;8.30;99.90;;;;;;6130094;28;20102;-81
2022/01/30 12:14:59;;;;;;;9.55;4.90;;;8.30;99.90;;;;;;6129855;29;20042;-81
2022/01/30 12:18:00;;;;;;;12.32;5.45;;;8.20;99.90;;;;;;6112560;29;20197;-79
2022/01/30 12:21:08;;;;;;;11.55;5.63;;;8.30;99.90;;;;;;6129429;29;20500;-82
2022/01/30 12:24:22;;;;;;;18.13;6.50;;;8.40;99.90;;;;;;6113859;28;20120;-83
2022/01/30 12:27:41;;;;;;;10.27;5.28;;;8.50;99.90;;;;;;6129674;29;20074;-82
2022/01/30 12:30:43;;;;;;;8.90;4.30;;;8.50;99.90;;;;;;6113495;28;20089;-81
2022/01/30 12:33:44;;;;;;;;;;;8.50;99.90;;;;;;6114016;29;20039;-81
2022/01/30 12:36:52;;;;;;;8.32;4.30;;;8.60;99.90;;;;;;6129031;29;20305;-80
2022/01/30 12:39:53;;;;;;;8.15;4.10;;;8.60;99.90;;;;;;6112614;29;20032;-81
2022/01/30 12:42:53;;;;;;;9.95;4.43;;;8.70;99.90;;;;;;6129381;28;20031;-82
2022/01/30 12:46:07;;;;;;;7.97;4.13;;;8.60;99.90;;;;;;6112928;29;20081;-83
2022/01/30 12:49:28;;;;;;;9.60;4.10;;;8.60;99.90;;;;;;6129561;28;20035;-84
2022/01/30 12:55:29;;;;;;;9.75;4.20;;;8.60;99.90;;;;;;6129174;28;20043;-81
2022/01/30 12:58:34;;;;;;;11.60;4.25;;;8.60;99.90;;;;;;6113195;29;20027;-81
2022/01/30 13:01:39;;;;;;;13.15;4.50;;;9.10;99.90;;;;;;6130012;28;20059;-81
2022/01/30 13:04:39;;;;;;;10.90;4.55;;;8.80;99.90;;;;;;6130220;28;20034;-81
2022/01/30 13:07:41;;;;;;;10.68;4.20;;;8.70;99.90;;;;;;6129865;28;20026;-82
2022/01/30 13:10:42;;;;;;;10.05;4.22;;;8.80;99.90;;;;;;6097539;28;20609;-81
2022/01/30 13:13:56;;;;;;;15.80;5.18;;;8.80;99.90;;;;;;6113513;28;20067;-81
2022/01/30 13:16:57;;;;;;;9.27;3.97;;;8.90;99.90;;;;;;6145543;28;20044;-82
2022/01/30 13:19:58;;;;;;;13.13;5.70;;;9.00;99.90;;;;;;6129539;28;20073;-82
2022/01/30 13:22:59;;;;;;;13.15;4.75;;;8.90;99.90;;;;;;6129100;29;20036;-82
2022/01/30 13:26:01;;;;;;;11.68;5.32;;;8.90;99.90;;;;;;6111666;29;20054;-80
2022/01/30 13:29:05;;;;;;;10.82;4.10;;;9.10;99.90;;;;;;6130876;28;20031;-80
2022/01/30 13:32:11;;;;;;;12.43;4.72;;;8.90;99.90;;;;;;6117284;29;20035;-80
2022/01/30 13:35:13;;;;;;;9.32;3.95;;;8.60;99.90;;;;;;6117024;28;20085;-81
2022/01/30 13:38:14;;;;;;;11.05;4.32;;;8.70;99.90;;;;;;6116543;29;20122;-78
2022/01/30 13:41:27;;;;;;;10.40;3.70;;;8.70;99.90;;;;;;6133324;29;20041;-78
2022/01/30 13:44:50;;;;;;;10.07;4.22;;;8.60;99.90;;;;;;6116361;29;20031;-79
2022/01/30 13:47:50;;;;;;;;;;;8.50;99.90;;;;;;6147334;28;20070;-79
2022/01/30 13:51:03;;;;;;;14.98;6.72;;;8.60;99.90;;;;;;6149575;28;20344;-79
2022/01/30 13:54:04;;;;;;;;;;;8.40;99.90;;;;;;6133042;29;20114;-75
2022/01/30 13:57:09;;;;;;;14.40;5.43;;;8.50;99.90;;;;;;6132705;29;19925;-76
2022/01/30 14:00:14;;;;;;;14.18;5.35;;;8.70;99.90;;;;;;6132823;28;20059;-81
2022/01/30 14:03:28;;;;;;;13.13;5.38;;;8.80;99.90;;;;;;6149888;28;20062;-79
2022/01/30 14:06:32;;;;;;;41.45;6.93;;;8.70;99.90;;;;;;6129115;29;20469;-78
2022/01/30 14:09:43;;;;;;;11.05;6.10;;;8.90;99.90;;;;;;6111948;29;20051;-81
2022/01/30 14:12:44;;;;;;;10.57;4.82;;;8.90;99.90;;;;;;6128103;29;20070;-82
2022/01/30 14:16:05;;;;;;;11.88;4.40;;;9.10;99.90;;;;;;6100587;28;20055;-80
2022/01/30 14:19:23;;;;;;;9.40;4.00;;;9.20;99.90;;;;;;6133945;28;20038;-79
2022/01/30 14:22:29;;;;;;;8.18;4.13;;;9.20;99.90;;;;;;6148741;28;20030;-80
2022/01/30 14:25:30;;;;;;;12.15;4.13;;;9.90;99.90;;;;;;6133330;28;20027;-80
2022/01/30 14:28:31;;;;;;;11.15;5.10;;;8.80;99.90;;;;;;6132858;28;20496;-79
2022/01/30 14:31:48;;;;;;;15.35;5.28;;;8.70;99.90;;;;;;6130459;29;20526;-83
2022/01/30 14:34:49;;;;;;;13.40;5.43;;;8.50;99.90;;;;;;6130479;29;20031;-80
2022/01/30 14:37:50;;;;;;;14.57;6.80;;;8.60;99.90;;;;;;6131613;28;20595;-79
2022/01/30 14:40:54;;;;;;;13.00;4.47;;;8.60;99.90;;;;;;6114967;29;20031;-80
2022/01/30 14:43:54;;;;;;;13.98;4.03;;;8.50;99.90;;;;;;6131057;29;20027;-79
2022/01/30 14:46:55;;;;;;;9.60;4.90;;;8.50;99.90;;;;;;6131359;29;20050;-80
2022/01/30 14:49:56;;;;;;;12.50;3.55;;;8.70;99.90;;;;;;6131272;29;20035;-79
2022/01/30 14:52:56;;;;;;;16.52;4.47;;;8.50;99.90;;;;;;6131797;29;20035;-79
2022/01/30 14:55:57;;;;;;;13.50;4.28;;;8.30;99.90;;;;;;6115556;29;20508;-80
2022/01/30 14:58:57;;;;;;;10.68;4.15;;;8.20;99.90;;;;;;6131517;29;20042;-80
2022/01/30 15:01:58;;;;;;;17.40;4.65;;;8.00;99.90;;;;;;6131521;29;20431;-80
2022/01/30 15:04:58;;;;;;;11.20;3.85;;;7.80;99.90;;;;;;6130793;29;20038;-80
2022/01/30 15:07:59;;;;;;;13.07;4.75;;;7.60;99.90;;;;;;6114805;29;20375;-79
2022/01/30 15:11:00;;;;;;;9.30;3.80;;;7.50;99.90;;;;;;6130797;29;20043;-80
2022/01/30 15:14:01;;;;;;;12.73;4.70;;;7.40;99.90;;;;;;6147977;29;20044;-81
2022/01/30 15:17:04;;;;;;;16.08;5.30;;;7.30;99.90;;;;;;6114662;29;20043;-80
2022/01/30 15:20:08;;;;;;;8.98;4.32;;;7.20;99.90;;;;;;6131240;29;20031;-79
2022/01/30 15:23:09;;;;;;;17.00;5.45;;;7.10;99.90;;;;;;6130827;29;20027;-79
2022/01/30 15:26:10;;;;;;;11.07;4.88;;;7.00;99.90;;;;;;6114113;28;20589;-79
2022/01/30 15:29:11;;;;;;;12.07;4.45;;;7.00;99.90;;;;;;6146905;28;20070;-78
2022/01/30 15:32:12;;;;;;;9.80;4.03;;;7.20;99.90;;;;;;6129968;28;20031;-80
2022/01/30 15:35:12;;;;;;;13.45;5.30;;;8.40;99.90;;;;;;6130539;28;20386;-82
2022/01/30 15:38:13;;;;;;;12.73;4.60;;;7.80;99.90;;;;;;6130121;28;20126;-79
2022/01/30 15:41:14;;;;;;;12.35;4.78;;;8.10;99.90;;;;;;6130153;28;20164;-79
2022/01/30 15:44:17;;;;;;;10.52;4.18;;;8.10;99.90;;;;;;6129536;28;20038;-80
2022/01/30 15:50:38;;;;;;;11.02;3.63;;;8.20;99.90;;;;;;6131844;28;20061;-82
2022/01/30 15:53:39;;;;;;;8.02;3.83;;;8.50;99.90;;;;;;6129520;29;20039;-79
2022/01/30 15:56:40;;;;;;;15.45;5.18;;;8.30;99.90;;;;;;6113943;28;20137;-82
2022/01/30 15:59:40;;;;;;;9.77;3.95;;;8.80;99.90;;;;;;6130334;29;20043;-79
2022/01/30 16:02:41;;;;;;;6.88;3.65;;;8.30;99.90;;;;;;6129138;28;20031;-79
2022/01/30 16:05:42;;;;;;;10.85;5.25;;;8.10;99.90;;;;;;6130051;29;20039;-80
2022/01/30 16:08:49;;;;;;;13.93;5.10;;;7.80;99.90;;;;;;6129668;29;20366;-79
2022/01/30 16:12:15;;;;;;;17.42;5.32;;;7.50;99.90;;;;;;6121557;29;20055;-78
2022/01/30 16:18:35;;;;;;;13.20;5.13;;;6.80;99.90;;;;;;6099012;29;20032;-81
2022/01/30 16:21:36;;;;;;;30.42;14.63;;;6.50;99.90;;;;;;6086239;29;20038;-79
2022/01/30 16:24:37;;;;;;;13.43;5.80;;;6.20;99.90;;;;;;6108504;29;20024;-79
2022/01/30 16:27:38;;;;;;;11.23;5.47;;;6.10;99.90;;;;;;6097963;29;20168;-80
2022/01/30 16:30:38;;;;;;;11.45;5.20;;;6.40;99.90;;;;;;6105667;29;20038;-80
2022/01/30 16:33:39;;;;;;;9.18;5.13;;;5.70;99.90;;;;;;6082602;29;20063;-80
2022/01/30 16:36:40;;;;;;;18.73;7.25;;;5.60;99.90;;;;;;6114008;29;20051;-79
2022/01/30 16:39:40;;;;;;;14.82;6.57;;;5.50;99.90;;;;;;6083171;29;20100;-78
2022/01/30 16:42:41;;;;;;;14.68;7.00;;;5.40;99.90;;;;;;6098641;29;20032;-79
2022/01/30 16:45:48;;;;;;;18.40;11.80;;;5.20;99.90;;;;;;6081294;29;20809;-79
2022/01/30 16:48:48;;;;;;;18.45;10.93;;;5.20;99.90;;;;;;6083062;29;20201;-80
2022/01/30 16:51:49;;;;;;;20.90;11.48;;;4.80;99.90;;;;;;6097540;29;20053;-81
2022/01/30 16:54:54;;;;;;;15.25;7.43;;;5.10;99.90;;;;;;6082324;29;20095;-79
2022/01/30 16:57:54;;;;;;;12.57;6.85;;;5.00;99.90;;;;;;6097358;29;20799;-78
2022/01/30 17:00:55;;;;;;;12.98;7.20;;;5.00;99.90;;;;;;6098340;29;20048;-79